createdAt,value
2023-02-21T00:02:43.421Z,155.48
2023-02-21T00:05:29.315Z,156.18
2023-02-21T00:08:14.889Z,167.30
2023-02-21T00:11:00.357Z,155.63
2023-02-21T00:13:46.287Z,153.90
2023-02-21T00:16:37.766Z,157.43
2023-02-21T00:19:23.390Z,149.93
2023-02-21T00:22:08.976Z,151.13
2023-02-21T00:24:54.982Z,141.57
2023-02-21T00:27:40.898Z,154.55
2023-02-21T00:30:27.431Z,138.10
2023-02-21T00:33:13.030Z,145.00
2023-02-21T00:35:58.764Z,143.93
2023-02-21T00:38:44.056Z,135.55
2023-02-21T00:41:29.325Z,137.13
2023-02-21T00:44:14.849Z,152.50
2023-02-21T00:47:00.122Z,136.07
2023-02-21T00:49:45.723Z,138.18
2023-02-21T00:52:31.673Z,130.32
2023-02-21T00:55:17.170Z,137.43
2023-02-21T00:58:03.385Z,133.00
2023-02-21T01:00:48.694Z,134.38
2023-02-21T01:03:34.023Z,132.88
2023-02-21T01:06:19.718Z,130.73
2023-02-21T01:09:06.145Z,129.30
2023-02-21T01:11:52.135Z,131.40
2023-02-21T01:14:38.133Z,129.18
2023-02-21T01:17:23.615Z,137.32
2023-02-21T01:20:09.291Z,143.25
2023-02-21T01:22:55.264Z,136.45
2023-02-21T01:25:41.076Z,132.93
2023-02-21T01:28:26.860Z,128.55
2023-02-21T01:31:12.722Z,139.15
2023-02-21T01:34:00.277Z,127.40
2023-02-21T01:36:46.803Z,121.40
2023-02-21T01:39:32.681Z,117.75
2023-02-21T01:42:19.328Z,118.72
2023-02-21T01:45:06.999Z,124.73
2023-02-21T01:47:53.813Z,131.37
2023-02-21T01:50:50.377Z,112.67
2023-02-21T01:53:40.790Z,114.80
2023-02-21T01:56:27.798Z,107.33
2023-02-21T01:59:16.900Z,116.37
2023-02-21T02:02:36.781Z,110.37
2023-02-21T02:05:24.206Z,144.63
2023-02-21T02:08:10.628Z,132.43
2023-02-21T02:10:55.918Z,111.30
2023-02-21T02:13:34.508Z,102.90
2023-02-21T02:16:41.070Z,112.37
2023-02-21T02:19:44.655Z,102.80
2023-02-21T02:22:41.771Z,97.07
2023-02-21T02:25:23.409Z,101.40
2023-02-21T02:28:00.813Z,101.70
2023-02-21T02:30:45.987Z,98.23
2023-02-21T02:33:43.110Z,104.40
2023-02-21T02:36:28.906Z,99.67
2023-02-21T02:39:31.416Z,97.67
2023-02-21T02:42:06.891Z,94.43
2023-02-21T02:44:41.643Z,92.63
2023-02-21T02:47:16.666Z,97.70
2023-02-21T02:49:45.482Z,92.40
2023-02-21T02:52:12.555Z,96.87
2023-02-21T02:54:39.506Z,93.43
2023-02-21T02:57:12.952Z,105.27
2023-02-21T02:59:45.460Z,92.30
2023-02-21T03:02:56.272Z,101.57
2023-02-21T03:05:36.070Z,94.60
2023-02-21T03:08:31.450Z,99.77
2023-02-21T03:11:14.094Z,102.23
2023-02-21T03:13:47.600Z,91.73
2023-02-21T03:16:27.308Z,94.43
2023-02-21T03:19:07.639Z,93.87
2023-02-21T03:22:01.606Z,94.77
2023-02-21T03:24:29.896Z,87.30
2023-02-21T03:27:06.915Z,96.53
2023-02-21T03:29:35.764Z,83.90
2023-02-21T03:32:33.483Z,84.70
2023-02-21T03:35:00.458Z,88.70
2023-02-21T03:37:38.626Z,89.10
2023-02-21T03:40:28.880Z,86.57
2023-02-21T03:42:58.673Z,87.47
2023-02-21T03:45:25.981Z,87.37
2023-02-21T03:47:53.427Z,88.27
2023-02-21T03:50:20.765Z,209.53
2023-02-21T03:52:47.779Z,89.17
2023-02-21T03:55:15.370Z,93.33
2023-02-21T03:57:42.341Z,82.50
2023-02-21T04:00:10.922Z,94.33
2023-02-21T04:02:37.891Z,86.83
2023-02-21T04:05:05.510Z,90.27
2023-02-21T04:07:32.762Z,87.93
2023-02-21T04:09:59.815Z,92.23
2023-02-21T04:12:27.223Z,92.77
2023-02-21T04:14:56.613Z,88.00
2023-02-21T04:17:23.644Z,84.60
2023-02-21T04:19:51.018Z,95.80
2023-02-21T04:22:18.464Z,86.33
2023-02-21T04:24:45.506Z,79.03
2023-02-21T04:27:12.513Z,83.80
2023-02-21T04:29:39.499Z,78.77
2023-02-21T04:32:06.525Z,83.10
2023-02-21T04:34:33.551Z,73.87
2023-02-21T04:37:00.574Z,81.53
2023-02-21T04:39:27.731Z,84.93
2023-02-21T04:41:54.765Z,81.90
2023-02-21T04:44:21.756Z,79.53
2023-02-21T04:46:48.706Z,77.70
2023-02-21T04:49:15.986Z,78.67
2023-02-21T04:51:43.034Z,72.67
2023-02-21T04:54:10.455Z,72.73
2023-02-21T04:56:39.818Z,76.77
2023-02-21T04:59:06.884Z,77.17
2023-02-21T05:01:33.962Z,72.40
2023-02-21T05:04:01.234Z,79.17
2023-02-21T05:06:30.103Z,71.93
2023-02-21T05:08:58.718Z,72.17
2023-02-21T05:11:26.600Z,73.03
2023-02-21T05:13:53.814Z,73.53
2023-02-21T05:16:21.531Z,74.03
2023-02-21T05:18:49.629Z,75.03
2023-02-21T05:21:19.374Z,74.00
2023-02-21T05:23:56.022Z,95.03
2023-02-21T05:26:31.504Z,90.73
2023-02-21T05:28:58.836Z,76.13
2023-02-21T05:31:26.093Z,74.33
2023-02-21T05:33:53.108Z,76.23
2023-02-21T05:36:20.366Z,90.90
2023-02-21T05:38:55.703Z,72.53
2023-02-21T05:41:23.587Z,80.80
2023-02-21T05:43:51.439Z,75.67
2023-02-21T05:46:27.039Z,75.03
2023-02-21T05:48:57.310Z,71.90
2023-02-21T05:51:24.752Z,73.50
2023-02-21T05:53:52.517Z,75.67
2023-02-21T05:56:20.988Z,75.87
2023-02-21T05:58:48.336Z,91.27
2023-02-21T06:01:15.675Z,95.33
2023-02-21T06:03:43.756Z,74.27
2023-02-21T06:06:10.834Z,82.60
2023-02-21T06:08:49.117Z,80.97
2023-02-21T06:11:27.104Z,86.40
2023-02-21T06:13:57.376Z,83.50
2023-02-21T06:16:25.410Z,79.73
2023-02-21T06:18:57.137Z,78.90
2023-02-21T06:21:24.254Z,86.00
2023-02-21T06:23:51.746Z,123.43
2023-02-21T06:26:19.816Z,85.30
2023-02-21T06:28:48.173Z,106.90
2023-02-21T06:31:15.533Z,80.27
2023-02-21T06:33:43.010Z,81.47
2023-02-21T06:36:17.453Z,96.83
2023-02-21T06:38:51.404Z,89.20
2023-02-21T06:41:21.567Z,80.67
2023-02-21T06:43:49.671Z,70.27
2023-02-21T06:46:29.629Z,81.93
2023-02-21T06:48:57.148Z,74.63
2023-02-21T06:51:29.620Z,76.03
2023-02-21T06:53:58.408Z,79.70
2023-02-21T06:56:25.829Z,86.57
2023-02-21T06:58:53.075Z,72.80
2023-02-21T07:01:20.992Z,73.77
2023-02-21T07:03:48.017Z,76.93
2023-02-21T07:06:15.882Z,73.27
2023-02-21T07:08:42.938Z,75.07
2023-02-21T07:11:10.474Z,76.53
2023-02-21T07:13:37.616Z,82.30
2023-02-21T07:16:05.606Z,77.30
2023-02-21T07:18:33.024Z,74.53
2023-02-21T07:21:00.287Z,73.27
2023-02-21T07:23:27.485Z,79.10
2023-02-21T07:25:54.527Z,77.43
2023-02-21T07:28:21.571Z,80.63
2023-02-21T07:30:48.773Z,94.80
2023-02-21T07:33:16.495Z,87.27
2023-02-21T07:35:43.499Z,84.17
2023-02-21T07:38:10.540Z,78.60
2023-02-21T07:40:37.511Z,78.50
2023-02-21T07:43:04.575Z,78.93
2023-02-21T07:45:31.709Z,75.73
2023-02-21T07:47:58.645Z,77.23
2023-02-21T07:50:25.702Z,84.43
2023-02-21T07:52:52.780Z,90.53
2023-02-21T07:55:19.929Z,91.53
2023-02-21T07:57:47.049Z,83.20
2023-02-21T08:00:14.955Z,85.00
2023-02-21T08:02:42.294Z,86.33
2023-02-21T08:05:10.010Z,77.50
2023-02-21T08:07:37.155Z,87.93
2023-02-21T08:10:05.088Z,81.97
2023-02-21T08:12:32.074Z,85.20
2023-02-21T08:14:59.204Z,85.93
2023-02-21T08:17:26.832Z,77.70
2023-02-21T08:19:53.847Z,89.97
2023-02-21T08:22:21.146Z,93.40
2023-02-21T08:24:51.499Z,114.83
2023-02-21T08:27:19.166Z,117.57
2023-02-21T08:29:50.148Z,89.30
2023-02-21T08:32:17.674Z,86.27
2023-02-21T08:34:51.309Z,92.20
2023-02-21T08:37:20.173Z,149.80
2023-02-21T08:39:53.632Z,130.20
2023-02-21T08:42:21.963Z,117.57
2023-02-21T08:44:49.208Z,144.70
2023-02-21T08:47:18.214Z,154.37
2023-02-21T08:49:47.643Z,95.60
2023-02-21T08:55:08.738Z,86.40
2023-02-21T08:57:35.769Z,87.70
2023-02-21T09:00:06.827Z,88.87
2023-02-21T09:02:33.863Z,91.50
2023-02-21T09:05:00.928Z,96.13
2023-02-21T09:07:30.446Z,90.93
2023-02-21T09:09:59.011Z,95.90
2023-02-21T09:12:28.383Z,96.30
2023-02-21T09:14:55.335Z,105.70
2023-02-21T09:17:22.358Z,102.63
2023-02-21T09:19:49.409Z,107.70
2023-02-21T09:22:18.466Z,105.40
2023-02-21T09:24:45.479Z,110.10
2023-02-21T09:27:12.560Z,113.38
2023-02-21T09:29:46.348Z,109.97
2023-02-21T09:32:14.678Z,114.33
2023-02-21T09:34:41.771Z,113.20
2023-02-21T09:37:08.893Z,130.02
2023-02-21T09:39:39.471Z,119.97
2023-02-21T09:42:06.902Z,164.98
2023-02-21T09:44:34.564Z,122.43
2023-02-21T09:47:06.041Z,130.05
2023-02-21T09:49:44.122Z,126.10
2023-02-21T09:52:35.915Z,132.98
2023-02-21T09:55:30.584Z,130.30
2023-02-21T09:57:57.860Z,132.82
2023-02-21T10:00:36.043Z,139.48
2023-02-21T10:03:33.560Z,151.20
2023-02-21T10:06:23.561Z,144.90
2023-02-21T10:09:27.616Z,143.18
2023-02-21T10:12:11.477Z,150.57
2023-02-21T10:14:56.972Z,155.35
2023-02-21T10:18:03.851Z,159.13
2023-02-21T10:20:52.441Z,175.93
2023-02-21T10:23:32.759Z,175.80
2023-02-21T10:26:07.802Z,191.18
2023-02-21T10:28:35.610Z,183.57
2023-02-21T10:31:13.432Z,212.43
2023-02-21T10:33:41.019Z,227.35
2023-02-21T10:36:18.969Z,235.45
2023-02-21T10:39:17.679Z,202.85
2023-02-21T10:41:45.568Z,249.80
2023-02-21T10:44:35.262Z,269.85
2023-02-21T10:47:20.194Z,233.35
2023-02-21T10:49:59.712Z,255.02
2023-02-21T10:52:27.049Z,265.17
2023-02-21T10:55:32.231Z,226.25
2023-02-21T10:58:09.572Z,229.18
2023-02-21T11:00:42.208Z,231.60
2023-02-21T11:03:27.914Z,240.07
2023-02-21T11:06:01.913Z,239.07
2023-02-21T11:08:43.974Z,238.30
2023-02-21T11:11:11.685Z,248.48
2023-02-21T11:13:39.278Z,254.60
2023-02-21T11:16:24.801Z,266.13
2023-02-21T11:19:08.600Z,256.85
2023-02-21T11:21:35.817Z,267.02
2023-02-21T11:24:06.621Z,266.48
2023-02-21T11:27:00.256Z,291.80
2023-02-21T11:29:27.430Z,285.10
2023-02-21T11:31:55.664Z,309.30
2023-02-21T11:34:29.772Z,310.40
2023-02-21T11:37:04.087Z,319.08
2023-02-21T11:39:34.964Z,315.75
2023-02-21T11:42:06.922Z,317.55
2023-02-21T11:44:39.945Z,327.98
2023-02-21T11:47:19.772Z,352.15
2023-02-21T11:50:04.625Z,360.15
2023-02-21T11:52:48.697Z,366.45
2023-02-21T11:55:19.832Z,382.23
2023-02-21T11:57:58.481Z,398.83
2023-02-21T12:00:40.646Z,415.73
2023-02-21T12:03:46.647Z,407.67
2023-02-21T12:06:29.208Z,449.63
2023-02-21T12:09:22.446Z,450.00
2023-02-21T12:12:02.380Z,462.85
2023-02-21T12:14:46.614Z,467.63
2023-02-21T12:17:35.410Z,491.52
2023-02-21T12:20:46.947Z,500.23
2023-02-21T12:23:25.679Z,516.08
2023-02-21T12:26:10.996Z,523.33
2023-02-21T12:29:00.336Z,538.42
2023-02-21T12:31:55.167Z,538.53
2023-02-21T12:34:53.915Z,536.20
2023-02-21T12:38:09.218Z,565.72
2023-02-21T12:41:07.090Z,577.30
2023-02-21T12:44:13.720Z,583.95
2023-02-21T12:46:56.108Z,580.10
2023-02-21T12:49:45.994Z,609.67
2023-02-21T12:52:32.187Z,616.28
2023-02-21T12:55:19.993Z,623.63
2023-02-21T12:58:14.649Z,622.83
2023-02-21T13:01:02.450Z,628.63
2023-02-21T13:03:40.935Z,646.53
2023-02-21T13:06:31.490Z,657.72
2023-02-21T13:09:02.200Z,665.65
2023-02-21T13:11:43.329Z,666.08
2023-02-21T13:14:17.057Z,684.08
2023-02-21T13:16:44.186Z,669.95
2023-02-21T13:19:13.822Z,676.72
2023-02-21T13:21:53.148Z,685.08
2023-02-21T13:24:39.814Z,675.15
2023-02-21T13:27:39.420Z,694.33
2023-02-21T13:30:38.428Z,692.15
2023-02-21T13:33:06.294Z,699.67
2023-02-21T13:35:38.700Z,707.42
2023-02-21T13:38:10.538Z,713.78
2023-02-21T13:41:02.883Z,715.20
2023-02-21T13:43:34.019Z,716.70
2023-02-21T13:46:31.446Z,721.67
2023-02-21T13:49:48.004Z,734.70
2023-02-21T13:52:23.586Z,730.28
2023-02-21T13:55:21.223Z,727.55
2023-02-21T13:57:57.617Z,738.70
2023-02-21T14:00:24.474Z,730.42
2023-02-21T14:02:59.127Z,740.72
2023-02-21T14:05:47.196Z,747.63
2023-02-21T14:08:44.012Z,751.17
2023-02-21T14:11:23.805Z,750.50
2023-02-21T14:13:55.421Z,745.08
2023-02-21T14:16:47.909Z,754.72
2023-02-21T14:19:35.833Z,752.67
2023-02-21T14:22:30.891Z,741.17
2023-02-21T14:25:18.457Z,737.53
2023-02-21T14:27:45.889Z,735.28
2023-02-21T14:30:12.949Z,740.97
2023-02-21T14:32:47.519Z,760.97
2023-02-21T14:35:20.199Z,742.40
2023-02-21T14:38:05.063Z,741.75
2023-02-21T14:40:34.925Z,741.03
2023-02-21T14:43:51.131Z,736.35
2023-02-21T14:46:51.483Z,728.75
2023-02-21T14:49:36.384Z,714.10
2023-02-21T14:52:37.868Z,720.67
2023-02-21T14:55:32.200Z,729.78
2023-02-21T14:58:15.213Z,723.63
2023-02-21T15:01:35.955Z,732.28
2023-02-21T15:04:15.832Z,723.75
2023-02-21T15:06:56.356Z,731.22
2023-02-21T15:09:23.656Z,729.60
2023-02-21T15:11:59.298Z,732.60
2023-02-21T15:14:39.009Z,734.40
2023-02-21T15:17:24.213Z,737.97
2023-02-21T15:20:15.013Z,729.33
2023-02-21T15:22:43.157Z,735.33
2023-02-21T15:25:10.131Z,729.70
2023-02-21T15:27:53.474Z,725.05
2023-02-21T15:30:35.530Z,728.30
2023-02-21T15:33:21.421Z,730.00
2023-02-21T15:35:56.089Z,717.20
2023-02-21T15:38:39.495Z,723.35
2023-02-21T15:41:16.144Z,719.58
2023-02-21T15:43:58.679Z,732.38
2023-02-21T15:46:43.723Z,717.00
2023-02-21T15:49:27.201Z,712.35
2023-02-21T15:51:54.708Z,713.83
2023-02-21T15:54:25.977Z,714.75
2023-02-21T15:57:09.695Z,717.33
2023-02-21T15:59:38.964Z,715.65
2023-02-21T16:02:13.548Z,716.88
2023-02-21T16:04:48.826Z,721.72
2023-02-21T16:07:30.443Z,741.33
2023-02-21T16:10:11.858Z,730.70
2023-02-21T16:12:46.898Z,726.47
2023-02-21T16:15:23.133Z,726.35
2023-02-21T16:18:01.520Z,727.45
2023-02-21T16:20:35.248Z,719.70
2023-02-21T16:23:21.076Z,722.60
2023-02-21T16:26:09.978Z,714.60
2023-02-21T16:28:39.745Z,703.85
2023-02-21T16:31:12.719Z,710.88
2023-02-21T16:33:39.975Z,703.58
2023-02-21T16:36:16.379Z,694.83
2023-02-21T16:38:43.359Z,678.60
2023-02-21T16:41:16.321Z,674.83
2023-02-21T16:43:43.490Z,666.38
2023-02-21T16:46:10.758Z,664.67
2023-02-21T16:48:37.776Z,650.65
2023-02-21T16:51:14.479Z,653.88
2023-02-21T16:53:43.284Z,639.90
2023-02-21T16:56:10.301Z,634.03
2023-02-21T16:58:41.927Z,617.97
2023-02-21T17:01:21.953Z,615.67
2023-02-21T17:04:00.650Z,605.88
2023-02-21T17:06:28.914Z,582.03
2023-02-21T17:08:56.926Z,592.20
2023-02-21T17:11:23.922Z,587.47
2023-02-21T17:13:51.253Z,554.55
2023-02-21T17:16:19.294Z,543.75
2023-02-21T17:18:46.953Z,534.78
2023-02-21T17:21:14.485Z,507.38
2023-02-21T17:23:43.031Z,507.17
2023-02-21T17:26:12.403Z,493.15
2023-02-21T17:28:39.978Z,493.52
2023-02-21T17:31:07.612Z,493.48
2023-02-21T17:33:35.712Z,463.08
2023-02-21T17:36:02.937Z,443.63
2023-02-21T17:38:30.511Z,436.75
2023-02-21T17:40:58.734Z,414.25
2023-02-21T17:43:25.807Z,411.13
2023-02-21T17:45:52.914Z,399.88
2023-02-21T17:48:20.292Z,396.20
2023-02-21T17:50:47.362Z,375.60
2023-02-21T17:53:14.690Z,367.45
2023-02-21T17:55:42.452Z,344.77
2023-02-21T17:58:10.409Z,341.77
2023-02-21T18:00:39.345Z,349.42
2023-02-21T18:03:07.627Z,326.90
2023-02-21T18:05:36.092Z,307.92
2023-02-21T18:08:04.013Z,316.83
2023-02-21T18:10:31.040Z,301.55
2023-02-21T18:12:58.417Z,300.65
2023-02-21T18:15:30.433Z,285.92
2023-02-21T18:18:04.792Z,272.02
2023-02-21T18:20:33.313Z,261.58
2023-02-21T18:23:03.241Z,255.77
2023-02-21T18:25:30.590Z,255.75
2023-02-21T18:27:58.192Z,250.43
2023-02-21T18:30:25.230Z,236.13
2023-02-21T18:32:52.556Z,246.50
2023-02-21T18:35:20.888Z,257.35
2023-02-21T18:37:48.896Z,241.23
2023-02-21T18:40:18.477Z,227.52
2023-02-21T18:42:46.444Z,223.52
2023-02-21T18:45:13.564Z,210.65
2023-02-21T18:47:40.897Z,224.85
2023-02-21T18:50:08.722Z,208.82
2023-02-21T18:52:35.783Z,210.68
2023-02-21T18:55:04.201Z,201.35
2023-02-21T18:57:31.859Z,192.77
2023-02-21T18:59:59.204Z,217.43
2023-02-21T19:02:27.172Z,198.88
2023-02-21T19:04:54.309Z,192.45
2023-02-21T19:07:21.390Z,205.43
2023-02-21T19:09:51.730Z,181.32
2023-02-21T19:12:18.933Z,184.23
2023-02-21T19:14:46.322Z,172.77
2023-02-21T19:17:13.448Z,162.10
2023-02-21T19:19:43.805Z,166.10
2023-02-21T19:22:10.810Z,156.25
2023-02-21T19:24:37.865Z,162.95
2023-02-21T19:27:04.929Z,158.32
2023-02-21T19:29:31.923Z,158.98
2023-02-21T19:31:59.111Z,165.15
2023-02-21T19:34:26.380Z,180.63
2023-02-21T19:36:53.393Z,148.15
2023-02-21T19:39:20.452Z,153.40
2023-02-21T19:41:47.637Z,160.38
2023-02-21T19:44:15.402Z,141.20
2023-02-21T19:46:42.460Z,140.65
2023-02-21T19:49:18.745Z,143.03
2023-02-21T19:51:49.028Z,138.68
2023-02-21T19:54:20.312Z,138.00
2023-02-21T19:56:50.086Z,135.60
2023-02-21T19:59:18.782Z,144.10
2023-02-21T20:01:46.265Z,140.82
2023-02-21T20:04:13.423Z,189.88
2023-02-21T20:06:40.506Z,138.27
2023-02-21T20:11:49.876Z,167.33
2023-02-21T20:14:17.773Z,147.33
2023-02-21T20:16:46.525Z,137.83
2023-02-21T20:19:15.038Z,141.70
2023-02-21T20:21:43.128Z,140.17
2023-02-21T20:24:10.991Z,142.50
2023-02-21T20:26:39.111Z,133.00
2023-02-21T20:29:08.960Z,129.73
2023-02-21T20:31:38.811Z,124.77
2023-02-21T20:34:06.993Z,162.03
2023-02-21T20:36:38.036Z,145.50
2023-02-21T20:39:07.103Z,121.17
2023-02-21T20:41:39.122Z,153.70
2023-02-21T20:44:07.298Z,139.03
2023-02-21T20:46:35.019Z,127.90
2023-02-21T20:49:03.366Z,123.20
2023-02-21T20:51:36.919Z,125.43
2023-02-21T20:54:04.854Z,142.83
2023-02-21T20:56:39.589Z,125.70
2023-02-21T20:59:15.827Z,126.67
2023-02-21T21:01:48.464Z,115.50
2023-02-21T21:04:22.098Z,119.70
2023-02-21T21:06:49.635Z,115.97
2023-02-21T21:09:18.171Z,122.87
2023-02-21T21:11:45.921Z,116.80
2023-02-21T21:14:16.606Z,125.30
2023-02-21T21:16:46.621Z,106.27
2023-02-21T21:19:13.713Z,104.00
2023-02-21T21:21:40.755Z,116.33
2023-02-21T21:24:07.955Z,101.33
2023-02-21T21:26:35.069Z,99.87
2023-02-21T21:29:02.087Z,111.93
2023-02-21T21:31:29.216Z,116.27
2023-02-21T21:33:56.499Z,106.53
2023-02-21T21:36:26.558Z,102.87
2023-02-21T21:38:53.645Z,99.53
2023-02-21T21:41:20.858Z,117.50
2023-02-21T21:43:48.444Z,110.13
2023-02-21T21:46:16.264Z,113.13
2023-02-21T21:48:44.633Z,107.17
2023-02-21T21:51:14.154Z,107.77
2023-02-21T21:53:41.614Z,101.90
2023-02-21T21:56:11.449Z,109.77
2023-02-21T21:58:38.440Z,112.33
2023-02-21T22:01:05.818Z,100.93
2023-02-21T22:03:34.810Z,103.63
2023-02-21T22:06:02.020Z,103.10
2023-02-21T22:08:29.658Z,120.77
2023-02-21T22:11:00.172Z,102.50
2023-02-21T22:13:29.549Z,95.97
2023-02-21T22:15:56.661Z,111.00
2023-02-21T22:18:24.146Z,108.23
2023-02-21T22:20:51.140Z,102.93
2023-02-21T22:23:26.743Z,93.43
2023-02-21T22:25:53.686Z,106.57
2023-02-21T22:28:20.633Z,93.33
2023-02-21T22:30:47.678Z,103.70
2023-02-21T22:33:18.806Z,98.37
2023-02-21T22:35:47.154Z,101.57
2023-02-21T22:38:17.225Z,94.47
2023-02-21T22:40:44.519Z,89.00
2023-02-21T22:43:13.654Z,104.57
2023-02-21T22:45:44.298Z,88.03
2023-02-21T22:48:11.693Z,85.10
2023-02-21T22:50:39.572Z,87.93
2023-02-21T22:53:13.018Z,105.33
2023-02-21T22:55:40.133Z,81.70
2023-02-21T22:58:09.519Z,88.67
2023-02-21T23:00:37.919Z,100.47
2023-02-21T23:03:14.672Z,87.23
2023-02-21T23:05:47.791Z,79.70
2023-02-21T23:08:20.681Z,88.13
2023-02-21T23:10:48.664Z,88.23
2023-02-21T23:13:20.854Z,91.63
2023-02-21T23:15:49.549Z,186.37
2023-02-21T23:18:24.086Z,85.10
2023-02-21T23:20:57.260Z,94.23
2023-02-21T23:23:28.636Z,99.60
2023-02-21T23:25:59.359Z,92.10
2023-02-21T23:28:31.756Z,82.10
2023-02-21T23:30:58.702Z,92.13
2023-02-21T23:33:29.595Z,80.90
2023-02-21T23:35:57.864Z,80.80
2023-02-21T23:38:28.252Z,95.83
2023-02-21T23:40:58.830Z,83.80
2023-02-21T23:43:30.248Z,81.83
2023-02-21T23:45:59.103Z,81.73
2023-02-21T23:48:26.451Z,92.03
2023-02-21T23:50:57.735Z,77.73
2023-02-21T23:53:27.652Z,77.43
2023-02-21T23:55:57.650Z,85.00
2023-02-21T23:58:29.037Z,84.97
